»·PEaware :: N335LP KSNA-KPSP

N335LP :: KSNA-KPSP

FLIGHT INFORMATION

Flight Status: Arrived
Operator: Privately registered:
United States
More flights under this callsign
Pilot: Luc P. (3613)
Aircraft: CESSNA 152 AEROBAT
(C152)
More flights by this aircraft type
Origin: KSNA John Wayne-Orange Co
United States
Destination: KPSP Palm Springs Intl
United States
More flights between these airports :: More routes between these airports
Route:
File this flight plan on PilotEdge
Remarks:
Altitude:
(Current/Filed)
0ft
Speed:
(Current/Filed)
0kts
Departed: 13-Jan-21 09:42 AM
Arrived: 13-Jan-21 10:32 AM
Distance/Time
Traveled:
69nm/0:50
Distance/Time
To Go:
Arrived

Flight Plot

Page will automatically refresh every two minutes.


Map Options




Map Legend


Flown Route
Filed Route
Departure Airport
Arrival Airport
Navaid (VOR, NDB)
Fix

Horizontal Profiles

Position Reports

Time Latitude Longitude Heading Altitude Ground
Speed
13-Jan-21 09:30 33.667994 -117.871310 72 45ft 0kts
13-Jan-21 09:31 33.667994 -117.871310 72 45ft 0kts
13-Jan-21 09:32 33.668173 -117.871270 307 45ft 0kts
13-Jan-21 09:33 33.668803 -117.871276 40 46ft 9kts
13-Jan-21 09:34 33.671327 -117.868711 36 45ft 11kts
13-Jan-21 09:35 33.673382 -117.867618 47 46ft 0kts
13-Jan-21 09:36 33.673382 -117.867618 45 46ft 0kts
13-Jan-21 09:37 33.673997 -117.867169 26 47ft 12kts
13-Jan-21 09:38 33.677441 -117.864996 28 45ft 13kts
13-Jan-21 09:39 33.679924 -117.863544 312 44ft 4kts
13-Jan-21 09:40 33.680144 -117.864101 267 44ft 7kts
13-Jan-21 09:41 33.667951 -117.871532 180 444ft 77kts
13-Jan-21 09:42 33.660873 -117.848472 92 1160ft 88kts
13-Jan-21 09:43 33.658608 -117.818875 93 1863ft 90kts
13-Jan-21 09:44 33.655051 -117.786664 95 2278ft 102kts
13-Jan-21 09:45 33.655893 -117.756682 62 3005ft 86kts
13-Jan-21 09:46 33.669229 -117.732764 51 3611ft 88kts
13-Jan-21 09:47 33.684073 -117.707977 57 4088ft 92kts
13-Jan-21 09:48 33.698613 -117.684769 52 4722ft 83kts
13-Jan-21 09:49 33.711796 -117.661320 57 5295ft 87kts
13-Jan-21 09:50 33.724045 -117.636253 57 5841ft 87kts
13-Jan-21 09:51 33.737464 -117.612633 57 6386ft 83kts
13-Jan-21 09:52 33.747142 -117.586290 65 6950ft 87kts
13-Jan-21 09:53 33.754957 -117.559148 74 7439ft 86kts
13-Jan-21 09:54 33.760813 -117.529258 72 7570ft 99kts
13-Jan-21 09:55 33.770207 -117.497795 69 7565ft 103kts
13-Jan-21 09:56 33.779597 -117.466494 68 7554ft 93kts
13-Jan-21 09:57 33.788880 -117.435586 68 7444ft 104kts
13-Jan-21 09:58 33.796873 -117.404255 72 7482ft 94kts
13-Jan-21 09:59 33.804534 -117.373522 67 7513ft 96kts
13-Jan-21 10:00 33.814669 -117.342757 64 7473ft 99kts
13-Jan-21 10:01 33.824238 -117.310796 68 7444ft 96kts
13-Jan-21 10:02 33.832884 -117.280334 68 7532ft 96kts
13-Jan-21 10:03 33.842984 -117.249264 64 7476ft 100kts
13-Jan-21 10:04 33.854201 -117.218956 62 7476ft 100kts
13-Jan-21 10:05 33.864885 -117.188480 71 7486ft 98kts
13-Jan-21 10:06 33.875151 -117.157927 60 7506ft 97kts
13-Jan-21 10:07 33.888508 -117.129479 61 7538ft 99kts
13-Jan-21 10:08 33.897140 -117.097233 74 7464ft 101kts
13-Jan-21 10:10 33.903344 -117.064740 74 7502ft 96kts
13-Jan-21 10:11 33.907211 -117.031874 79 7470ft 101kts
13-Jan-21 10:12 33.912245 -116.999180 74 7523ft 97kts
13-Jan-21 10:13 33.918202 -116.966825 78 7525ft 99kts
13-Jan-21 10:14 33.919551 -116.932493 87 7425ft 104kts
13-Jan-21 10:15 33.920701 -116.899231 83 7492ft 101kts
13-Jan-21 10:16 33.924249 -116.865600 84 7359ft 103kts
13-Jan-21 10:17 33.925253 -116.831498 85 6973ft 103kts
13-Jan-21 10:18 33.925585 -116.796290 88 6316ft 109kts
13-Jan-21 10:19 33.925265 -116.760542 88 5639ft 105kts
13-Jan-21 10:20 33.924680 -116.726965 89 5186ft 96kts
13-Jan-21 10:21 33.921899 -116.693881 96 4651ft 107kts
13-Jan-21 10:22 33.917303 -116.659686 101 3880ft 91kts
13-Jan-21 10:23 33.907763 -116.630306 122 3374ft 99kts
13-Jan-21 10:23 33.894923 -116.607326 118 2891ft 95kts
13-Jan-21 10:25 33.885561 -116.571408 103 2604ft 93kts
13-Jan-21 10:26 33.879280 -116.539926 110 2272ft 99kts
13-Jan-21 10:26 33.864512 -116.518860 142 1768ft 97kts
13-Jan-21 10:27 33.842999 -116.500376 144 1447ft 96kts
13-Jan-21 10:29 33.817605 -116.479747 149 1065ft 80kts
13-Jan-21 10:29 33.813842 -116.490677 318 686ft 75kts
13-Jan-21 10:30 33.827001 -116.502423 322 417ft 41kts
13-Jan-21 10:31 33.830020 -116.504397 48 431ft 0kts
13-Jan-21 10:32 33.829390 -116.503551 145 428ft 12kts
13-Jan-21 10:33 33.825569 -116.500157 141 408ft 19kts
13-Jan-21 10:34 33.823318 -116.497916 143 403ft 7kts
13-Jan-21 10:35 33.822611 -116.497577 57 403ft 2kts
13-Jan-21 10:36 33.822620 -116.497559 60 403ft 0kts
13-Jan-21 10:37 33.822620 -116.497559 60 403ft 0kts

Navigation Log

Ident Type
Flight plan parsing failed, navigation log unavailable